South Wanatah, Indiana
Current Conditions -  °F | °C
As of 7:56 PM on Wednesday 26 Nov 2014 (Local Time) from KVPZ Reporting Station
Clear Clear  
Wind Chill: 24°   Ceiling: Unl
Heat Index: 24°   Visibility: 10mi
Dew Point: 18°   Wind: 0mph
Humidity: 77%   Direction: NA
Pressure: 30.13"   Gusts: NA
Location:  41.4092°N, 86.8646°W
Report Text: KVPZ 270156Z AUTO 00000KT 10SM CLR M04/M08 A3013 RMK AO2 SLP214 T10441078 TSNO
Loading
Personal Weather Stations






























Interactive Weather Map New forecast layout! Learn more

10-Day Weather Forecast

Advertisements
Track Severe Weather on mobile